Home > Products > Valid Products > TAF

000
FTUS41 KILN 280300 AAA
TAFCMH
TAF AMD
KCMH 280353Z 2804/2824 26012KT P6SM VCSH BKN040 OVC045
      TEMPO 2804/2808 -SHSN BKN025
     FM281400 21009KT P6SM SCT025 BKN120=



000
FTUS41 KILN 280300 AAA
TAFDAY
TAF AMD
KDAY 280353Z 2804/2824 29009KT P6SM -SHSN FEW018 BKN027 OVC050
     FM281300 20011KT P6SM SCT025 BKN100=



000
FTUS41 KILN 280300 AAA
TAFLUK
TAF AMD
KLUK 280353Z 2804/2824 27011KT P6SM VCSH BKN029 OVC035
      TEMPO 2804/2806 5SM -SHSN
     FM281300 19007KT P6SM SCT028 BKN100=



000
FTUS41 KILN 280300 AAA
TAFLCK
TAF AMD
KLCK 280353Z 2804/2824 27011KT P6SM VCSH SCT030 OVC040
      TEMPO 2804/2808 -SHSN BKN025
     FM281400 21008KT P6SM SCT025 BKN120=



000
FTUS41 KILN 280300 AAA
TAFCVG
TAF AMD
KCVG 280353Z 2804/2906 30009KT P6SM VCSH BKN029 OVC035
      TEMPO 2804/2806 5SM -SHSN
     FM281300 19010KT P6SM SCT025 BKN100
     FM282300 16006KT P6SM SCT050 BKN120=



000
FTUS41 KILN 280300 AAA
TAFILN
TAF AMD
KILN 280353Z 2804/2824 27009KT P6SM -SHSN OVC035
      TEMPO 2804/2808 BKN025
     FM281300 20010KT P6SM SCT025 BKN100=



000
FTUS41 KILN 272300
TAFCMH
TAF
KCMH 272338Z 2800/2824 28011KT P6SM VCSH BKN024 BKN029 OVC035
     FM280100 29008KT P6SM OVC025
     FM281400 21009KT P6SM SCT025 BKN120=



000
FTUS41 KILN 272300
TAFCVG
TAF
KCVG 272338Z 2800/2906 28010KT P6SM -SHSN SCT023 OVC030
      TEMPO 2802/2806 5SM -SHSN OVC023
     FM281300 19010KT P6SM SCT025 BKN100
     FM282300 16006KT P6SM SCT050 BKN120=



000
FTUS41 KILN 272300
TAFLCK
TAF
KLCK 272338Z 2800/2824 27009KT P6SM -SN SCT023 BKN027 OVC040
     FM280100 29007KT P6SM OVC025
     FM281400 21008KT P6SM SCT025 BKN120=



000
FTUS41 KILN 272300
TAFDAY
TAF
KDAY 272338Z 2800/2824 29012G22KT P6SM VCSH OVC021
     FM281300 20011KT P6SM SCT025 BKN100=



000
FTUS41 KILN 272300
TAFLUK
TAF
KLUK 272338Z 2800/2824 28010KT P6SM VCSH SCT028 OVC040
      TEMPO 2802/2806 5SM -SHSN OVC028
     FM281300 19007KT P6SM SCT028 BKN100=



000
FTUS41 KILN 272300
TAFILN
TAF
KILN 272338Z 2800/2824 30009KT P6SM VCSH OVC025
     FM281300 20010KT P6SM SCT025 BKN100=



000
FTUS41 KILN 272100 AAA
TAFDAY
TAF AMD
KDAY 272100Z 2721/2818 29014G22KT P6SM -SN VCSH BKN014 BKN021
      OVC029
      TEMPO 2721/2722 4SM -SHSN BR OVC015
     FM280000 29010KT P6SM VCSH OVC025
     FM280900 26005KT P6SM SCT025
     FM281400 20008KT P6SM SCT025 BKN100=



000
FTUS41 KILN 272100 AAA
TAFILN
TAF AMD
KILN 272100Z 2721/2818 28012KT P6SM VCSH OVC027
      TEMPO 2721/2722 5SM -SHSN BR OVC015
     FM280000 29010KT P6SM VCSH OVC025
     FM280900 24004KT P6SM SCT025
     FM281400 20007KT P6SM SCT025 BKN100=



000
FTUS41 KILN 272100 AAA
TAFCVG
TAF AMD
KCVG 272100Z 2721/2824 28013G21KT P6SM VCSH OVC022
      TEMPO 2721/2722 5SM -SHSN BR OVC015
     FM280000 29008KT P6SM BKN025
     FM280600 23004KT P6SM SCT025
     FM281400 19010KT P6SM SCT025 BKN100=



000
FTUS41 KILN 272100 AAB
TAFLCK
TAF AMD
KLCK 272100Z 2721/2818 27013G19KT P6SM VCSH OVC035
      TEMPO 2721/2724 -SHSN OVC025
     FM280100 29006KT P6SM OVC025
     FM281400 22008KT P6SM SCT025 BKN120=



000
FTUS41 KILN 272100 AAA
TAFLUK
TAF AMD
KLUK 272100Z 2721/2818 28010G17KT P6SM VCSH OVC024
      TEMPO 2721/2722 5SM -SHSN BR OVC018
     FM280000 29006KT P6SM BKN028
     FM280600 VRB03KT P6SM SCT028
     FM281400 19008KT P6SM SCT028 BKN100=



000
FTUS41 KILN 272100 AAB
TAFCMH
TAF AMD
KCMH 272100Z 2721/2818 29013G19KT P6SM VCSH BKN040 OVC050
      TEMPO 2721/2724 -SHSN OVC025
     FM280100 29006KT P6SM OVC025
     FM281400 22008KT P6SM SCT025 BKN120=



000
FTUS41 KILN 271900 AAA
TAFLCK
TAF AMD
KLCK 271952Z 2720/2818 30012KT P6SM VCSH OVC035
      TEMPO 2720/2724 OVC025
     FM280100 29006KT P6SM OVC025
     FM281400 22008KT P6SM SCT025 BKN120=



000
FTUS41 KILN 271900 AAA
TAFCMH
TAF AMD
KCMH 271952Z 2720/2818 30012KT P6SM VCSH OVC035
      TEMPO 2720/2724 OVC025
     FM280100 29006KT P6SM OVC025
     FM281400 22008KT P6SM SCT025 BKN120=



000
FTUS41 KILN 271700
TAFILN
TAF
KILN 271740Z 2718/2818 30012G20KT P6SM VCSH OVC025
      TEMPO 2719/2722 5SM -SHSN BR OVC015
     FM280000 29010KT P6SM VCSH OVC025
     FM280900 24004KT P6SM SCT025
     FM281400 20007KT P6SM SCT025 BKN100=



000
FTUS41 KILN 271700
TAFCMH
TAF
KCMH 271740Z 2718/2818 32012KT P6SM VCSH OVC025
      TEMPO 2718/2722 OVC015
     FM280100 29006KT P6SM OVC025
     FM281400 22008KT P6SM SCT025 BKN120=



000
FTUS41 KILN 271700
TAFLCK
TAF
KLCK 271740Z 2718/2818 32012KT P6SM VCSH OVC025
      TEMPO 2718/2722 OVC015
     FM280100 29006KT P6SM OVC025
     FM281400 22008KT P6SM SCT025 BKN120=



000
FTUS41 KILN 271700
TAFCVG
TAF
KCVG 271740Z 2718/2824 30012G18KT P6SM VCSH OVC025
      TEMPO 2719/2722 5SM -SHSN BR OVC015
     FM280000 29008KT P6SM BKN025
     FM280600 23004KT P6SM SCT025
     FM281400 19010KT P6SM SCT025 BKN100=



000
FTUS41 KILN 271700
TAFDAY
TAF
KDAY 271740Z 2718/2818 30012G20KT P6SM VCSH OVC025
      TEMPO 2719/2722 5SM -SHSN BR OVC015
     FM280000 29010KT P6SM VCSH OVC025
     FM280900 26005KT P6SM SCT025
     FM281400 20008KT P6SM SCT025 BKN100=



000
FTUS41 KILN 271700
TAFLUK
TAF
KLUK 271740Z 2718/2818 30012G18KT P6SM VCSH OVC028
      TEMPO 2719/2722 5SM -SHSN BR OVC018
     FM280000 29006KT P6SM BKN028
     FM280600 VRB03KT P6SM SCT028
     FM281400 19008KT P6SM SCT028 BKN100=



000
FTUS41 KILN 271600 AAC
TAFLCK
TAF AMD
KLCK 271611Z 2716/2812 32012KT P6SM OVC015
      TEMPO 2716/2718 4SM -SHSN BR
     FM280100 29008KT P6SM OVC025=



000
FTUS41 KILN 271600 AAC
TAFCMH
TAF AMD
KCMH 271610Z 2716/2812 32012KT P6SM VCSH OVC015
      TEMPO 2716/2718 4SM -SHSN BR
     FM280100 29008KT P6SM BKN025=



000
FTUS41 KILN 271600 AAB
TAFILN
TAF AMD
KILN 271609Z 2716/2812 30012G18KT P6SM VCSH OVC015
     FM272300 29012KT P6SM BKN035
     FM280200 29007KT P6SM BKN025=



000
FTUS41 KILN 271600 AAB
TAFDAY
TAF AMD
KDAY 271608Z 2716/2812 30012G20KT P6SM VCSH BKN025
      TEMPO 2718/2722 5SM -SHSN OVC015
     FM280000 29010KT P6SM VCSH OVC025
     FM280600 29005KT P6SM BKN025=



000
FTUS41 KILN 271500 AAB
TAFLUK
TAF AMD
KLUK 271522Z 2715/2812 30011G17KT P6SM BKN035
      TEMPO 2715/2718 5SM -SHSN OVC025
     FM280100 29007KT P6SM BKN025
     FM280700 VRB03KT P6SM SCT025=



000
FTUS41 KILN 271500 AAB
TAFCVG
TAF AMD
KCVG 271522Z 2715/2818 30012G18KT P6SM BKN035
      TEMPO 2715/2718 5SM -SHSN OVC022
     FM280100 30009KT P6SM BKN025
     FM280600 VRB04KT P6SM SCT025
     FM281200 19006KT P6SM SCT025 BKN120=



000
FTUS41 KILN 271400 AAB
TAFLCK
TAF AMD
KLCK 271428Z 2714/2812 32012KT P6SM OVC015
      TEMPO 2714/2716 5SM -SHSN BR
     FM271600 31012KT P6SM OVC025
     FM271800 30012G18KT P6SM BKN035
     FM280100 29008KT P6SM OVC025=



000
FTUS41 KILN 271400 AAB
TAFCMH
TAF AMD
KCMH 271427Z 2714/2812 32012KT P6SM OVC015
      TEMPO 2714/2716 4SM -SHSN BR
     FM271600 31012KT P6SM OVC025
     FM271800 30012G18KT P6SM BKN035
     FM280100 29008KT P6SM BKN025=



000
FTUS41 KILN 271400 AAA
TAFILN
TAF AMD
KILN 271426Z 2714/2812 30012G18KT P6SM OVC015
      TEMPO 2714/2716 5SM -SHSN OVC025
     FM271600 30012G18KT P6SM BKN035
     FM272300 29012KT P6SM BKN035
     FM280200 29007KT P6SM BKN025=



000
FTUS41 KILN 271400 AAA
TAFDAY
TAF AMD
KDAY 271424Z 2714/2812 30012G20KT P6SM VCSH BKN035
     FM280000 29010KT P6SM VCSH OVC025
     FM280600 29005KT P6SM BKN025=



000
FTUS41 KILN 271400 AAA
TAFLUK
TAF AMD
KLUK 271423Z 2714/2812 30011G17KT P6SM BKN035
     FM280100 29007KT P6SM BKN025
     FM280700 VRB03KT P6SM SCT025=



000
FTUS41 KILN 271400 AAA
TAFCVG
TAF AMD
KCVG 271422Z 2714/2818 30012G18KT P6SM BKN035
     FM280100 30009KT P6SM BKN025
     FM280600 VRB04KT P6SM SCT025
     FM281200 19006KT P6SM SCT025 BKN120=



000
FTUS41 KILN 271300 AAA
TAFCMH
TAF AMD
KCMH 271304Z 2713/2812 32012KT P6SM OVC015
     FM271600 31012KT P6SM OVC025
     FM271800 30012G18KT P6SM BKN035
     FM280100 29008KT P6SM BKN025=



000
FTUS41 KILN 271300 AAA
TAFLCK
TAF AMD
KLCK 271304Z 2713/2812 32012KT P6SM OVC015
     FM271600 31012KT P6SM OVC025
     FM271800 30012G18KT P6SM BKN035
     FM280100 29008KT P6SM OVC025=



000
FTUS41 KILN 271100
TAFILN
TAF
KILN 271133Z 2712/2812 31007KT P6SM BKN025
      TEMPO 2712/2714 5SM BR OVC006
     FM271600 30012G18KT P6SM BKN035
     FM272300 29012KT P6SM BKN035
     FM280200 29007KT P6SM BKN025=



000
FTUS41 KILN 271100
TAFCMH
TAF
KCMH 271133Z 2712/2812 32007KT P6SM OVC012
     FM271300 31012KT P6SM OVC035
     FM271600 30012G18KT P6SM BKN035
     FM280100 29008KT P6SM BKN025=



000
FTUS41 KILN 271100
TAFLUK
TAF
KLUK 271133Z 2712/2812 31006KT P6SM BKN030 OVC090
     FM271300 32009KT P6SM OVC025
     FM271600 30011G17KT P6SM BKN035
     FM280100 29007KT P6SM BKN025
     FM280700 VRB03KT P6SM SCT025=



000
FTUS41 KILN 271100
TAFDAY
TAF
KDAY 271133Z 2712/2812 32010KT 6SM BR BKN012 BKN025
     FM271300 31010KT P6SM OVC015
     FM271500 31011KT P6SM OVC025
     FM271700 30012G20KT P6SM VCSH BKN035
     FM280000 29010KT P6SM VCSH OVC025
     FM280600 29005KT P6SM BKN025=



000
FTUS41 KILN 271100
TAFLCK
TAF
KLCK 271133Z 2712/2812 32005KT P6SM BKN015
     FM271300 31012KT P6SM OVC035
     FM271600 30012G18KT P6SM OVC035
     FM280100 29008KT P6SM OVC025=



000
FTUS41 KILN 271100
TAFCVG
TAF
KCVG 271133Z 2712/2818 32009KT P6SM BKN025 OVC080
     FM271600 30012G18KT P6SM BKN035
     FM280100 30009KT P6SM BKN025
     FM280600 VRB04KT P6SM SCT025
     FM281200 19006KT P6SM SCT025 BKN120=



000
FTUS41 KILN 271000 AAA
TAFCMH
TAF AMD
KCMH 271038Z 2711/2806 33006KT P6SM OVC009
     FM271400 31012KT P6SM OVC025
     FM271800 30012G18KT P6SM OVC035
     FM272300 29008KT P6SM OVC025=



000
FTUS41 KILN 270900 AAA
TAFDAY
TAF AMD
KDAY 270957Z 2710/2806 33008KT 5SM BR BKN012 OVC025
     FM271200 32006KT P6SM OVC025
     FM271500 32011KT P6SM OVC025
     FM271800 30012G20KT P6SM VCSH OVC035
     FM272300 29010KT P6SM VCSH OVC025=



000
FTUS41 KILN 270900 AAA
TAFDAY
TAF AMD
KDAY 270957Z 2710/2806 33008KT 5SM BR BKN012 OVC025
     FM271200 32006KT P6SM OVC025
     FM271500 32011KT P6SM OVC025
     FM271800 30012G20KT P6SM VCSH OVC035
     FM272300 29010KT P6SM VCSH OVC025=



000
FTUS41 KILN 270800 AAA
TAFCVG
TAF AMD
KCVG 270859Z 2709/2812 33004KT P6SM OVC100
     FM271200 32010KT P6SM OVC025
     FM271800 30012G18KT P6SM OVC035
     FM280000 30009KT P6SM BKN025
     FM280600 VRB04KT P6SM BKN025=



000
FTUS41 KILN 270500
TAFCMH
TAF
KCMH 270531Z 2706/2806 32005KT P6SM OVC035
     FM271400 31012KT P6SM OVC025
     FM271800 30012G18KT P6SM OVC035
     FM272300 29008KT P6SM OVC025=



000
FTUS41 KILN 270500
TAFLCK
TAF
KLCK 270531Z 2706/2806 32005KT P6SM OVC035
      TEMPO 2706/2708 OVC030
     FM271400 31012KT P6SM OVC025
     FM271800 30012G18KT P6SM OVC035
     FM272300 29008KT P6SM OVC025=



000
FTUS41 KILN 270500
TAFILN
TAF
KILN 270531Z 2706/2806 36005KT P6SM BKN130
     FM270900 33005KT P6SM OVC025
     FM271500 31011KT P6SM OVC025
     FM271800 30012G18KT P6SM OVC035
     FM272300 29010KT P6SM OVC025=



000
FTUS41 KILN 270500
TAFCVG
TAF
KCVG 270531Z 2706/2812 35004KT P6SM OVC100
     FM271200 32010KT P6SM OVC025
     FM271800 30012G18KT P6SM OVC035
     FM280000 30009KT P6SM BKN025
     FM280600 VRB04KT P6SM BKN025=



000
FTUS41 KILN 270500
TAFDAY
TAF
KDAY 270531Z 2706/2806 34006KT P6SM OVC025
     FM271500 32011KT P6SM OVC025
     FM271800 30012G20KT P6SM VCSH OVC035
     FM272300 29010KT P6SM VCSH OVC025=



000
FTUS41 KILN 270500
TAFLUK
TAF
KLUK 270531Z 2706/2806 01004KT P6SM OVC100
     FM271200 32009KT P6SM OVC025
     FM271800 30011G17KT P6SM OVC035
     FM280000 29007KT P6SM BKN025=



000
FTUS41 KILN 270400 AAA
TAFLCK
TAF AMD
KLCK 270401Z 2704/2724 35005KT P6SM BKN035
     FM270600 34004KT P6SM OVC025
     FM271400 31012KT P6SM OVC025=



000
FTUS41 KILN 270400 AAA
TAFCMH
TAF AMD
KCMH 270401Z 2704/2724 35005KT P6SM BKN035
     FM270600 34004KT P6SM OVC025
     FM271400 31012KT P6SM OVC025=



000
FTUS41 KILN 270400 AAA
TAFCMH
TAF AMD
KCMH 270401Z 2704/2724 35005KT P6SM BKN035
     FM270600 34004KT P6SM OVC025
     FM271400 31012KT P6SM OVC025=



000
FTUS41 KILN 270400 AAA
TAFLCK
TAF AMD
KLCK 270401Z 2704/2724 35005KT P6SM BKN035
     FM270600 34004KT P6SM OVC025
     FM271400 31012KT P6SM OVC025=



000
FTUS41 KILN 270200 AAA
TAFDAY
TAF AMD
KDAY 270235Z 2703/2724 32004KT P6SM OVC120
     FM270700 31012KT P6SM OVC025
     FM271800 31012KT P6SM VCSH OVC015=



000
FTUS41 KILN 262300 RRA
TAFLUK
TAF
KLUK 262343Z 2700/2724 VRB03KT P6SM SCT028 BKN150
     FM270800 32005KT P6SM BKN018
     FM271500 31010KT P6SM BKN025
     FM271800 32010KT P6SM BKN035=



000
FTUS41 KILN 262300 RRA
TAFDAY
TAF
KDAY 262343Z 2700/2724 33005KT P6SM OVC025
     FM271500 31012KT P6SM OVC025
     FM271800 31012KT P6SM VCSH OVC015=



000
FTUS41 KILN 262300 RRA
TAFCVG
TAF
KCVG 262343Z 2700/2806 VRB03KT P6SM SCT030 BKN150
     FM270900 32006KT P6SM BKN015
     FM271400 31010KT P6SM BKN025
     FM271800 30012KT P6SM BKN035
     FM280000 29005KT P6SM OVC025=



000
FTUS41 KILN 262300 RRA
TAFLCK
TAF
KLCK 262343Z 2700/2724 35005KT P6SM BKN035
     FM270400 34004KT P6SM OVC025
     FM271400 31012KT P6SM OVC025=



000
FTUS41 KILN 262300 RRA
TAFCMH
TAF
KCMH 262343Z 2700/2724 35005KT P6SM BKN035
     FM270400 34004KT P6SM OVC025
     FM271400 31012KT P6SM OVC025=



000
FTUS41 KILN 262300 RRA
TAFILN
TAF
KILN 262343Z 2700/2724 35004KT P6SM FEW025 BKN100
     FM270800 33005KT P6SM OVC015
     FM271500 31012KT P6SM BKN025
     FM271800 31010KT P6SM BKN015=



000
FTUS41 KILN 262300 AAA
TAFLUK
TAF AMD
KLUK 262301Z 2623/2718 VRB03KT P6SM SCT028
     FM270600 32005KT P6SM BKN018
     FM271500 31010KT P6SM BKN025=



000
FTUS41 KILN 262100 AAB
TAFCVG
TAF AMD
KCVG 262127Z 2621/2724 VRB03KT P6SM SCT030 BKN150
     FM270400 32006KT P6SM BKN015
     FM271400 31010KT P6SM BKN025
     FM271800 30012KT P6SM BKN035=



000
FTUS41 KILN 262100 AAB
TAFCVG
TAF AMD
KCVG 262127Z 2621/2724 VRB03KT P6SM SCT030 BKN150
     FM270400 32006KT P6SM BKN015
     FM271400 31010KT P6SM BKN025
     FM271800 30012KT P6SM BKN035=



000
FTUS41 KILN 262100 AAA
TAFCVG
TAF AMD
KCVG 262108Z 2621/2724 VRB03KT P6SM BKN025
     FM262300 35005KT P6SM SCT025
     FM270600 32006KT P6SM BKN015
     FM271500 31010KT P6SM BKN025
     FM271800 30012KT P6SM BKN035=



000
FTUS41 KILN 261900 AAA
TAFLCK
TAF AMD
KLCK 261937Z 2620/2718 35005KT P6SM BKN035
      TEMPO 2620/2623 BKN025
     FM270000 35005KT P6SM SCT035 BKN250
     FM270400 34004KT P6SM OVC025
     FM271400 31010KT P6SM OVC025=



000
FTUS41 KILN 261900 AAA
TAFCMH
TAF AMD
KCMH 261937Z 2620/2718 35005KT P6SM BKN035
      TEMPO 2620/2623 BKN025
     FM270000 35005KT P6SM SCT035 BKN250
     FM270400 34004KT P6SM OVC025
     FM271400 31010KT P6SM OVC025=



000
FTUS41 KILN 261900 AAA
TAFILN
TAF AMD
KILN 261928Z 2619/2718 01004KT P6SM BKN025
     FM270000 35004KT P6SM SCT025 BKN100
     FM270500 33005KT P6SM OVC015
     FM271500 31012KT P6SM BKN025=



000
FTUS41 KILN 261700
TAFILN
TAF
KILN 261721Z 2618/2718 VRB03KT P6SM OVC015
     FM270000 35004KT P6SM SCT025
     FM270500 33005KT P6SM OVC015
     FM271500 31012KT P6SM BKN025=



000
FTUS41 KILN 261700
TAFCMH
TAF
KCMH 261721Z 2618/2718 01005KT P6SM OVC035
     FM270400 34004KT P6SM OVC025
     FM271400 31010KT P6SM OVC025=



000
FTUS41 KILN 261700
TAFDAY
TAF
KDAY 261721Z 2618/2718 33005KT P6SM OVC015
     FM271500 31012KT P6SM OVC025=



000
FTUS41 KILN 261700
TAFLUK
TAF
KLUK 261721Z 2618/2718 VRB03KT P6SM BKN028
     FM270000 35004KT P6SM SCT028
     FM270600 32005KT P6SM BKN018
     FM271500 31010KT P6SM BKN025=



000
FTUS41 KILN 261700
TAFLCK
TAF
KLCK 261721Z 2618/2718 01005KT P6SM OVC035
     FM270400 34004KT P6SM OVC025
     FM271400 31010KT P6SM OVC025=



000
FTUS41 KILN 261700
TAFCVG
TAF
KCVG 261721Z 2618/2724 VRB03KT P6SM BKN025
     FM270000 35005KT P6SM SCT025
     FM270600 32006KT P6SM BKN015
     FM271500 31010KT P6SM BKN025
     FM271800 30012KT P6SM BKN035=



000
FTUS41 KILN 261500 AAB
TAFLUK
TAF AMD
KLUK 261541Z 2616/2712 05006KT P6SM BKN028
      TEMPO 2616/2617 OVC018
     FM270000 04005KT P6SM BKN015
     FM270600 34007KT P6SM BKN015=



000
FTUS41 KILN 261500 AAC
TAFCVG
TAF AMD
KCVG 261540Z 2616/2718 04006KT P6SM BKN025
      TEMPO 2616/2617 OVC015
     FM270000 04005KT P6SM BKN015
     FM270600 34007KT P6SM BKN015
     FM271200 31010KT P6SM BKN015=



000
FTUS41 KILN 261400 AAB
TAFCVG
TAF AMD
KCVG 261456Z 2615/2718 01006KT P6SM OVC025
     FM261600 02006KT P6SM BKN025
     FM270000 04005KT P6SM BKN015
     FM270600 34007KT P6SM BKN015
     FM271200 31010KT P6SM BKN015=



000
FTUS41 KILN 261300 AAA
TAFLUK
TAF AMD
KLUK 261306Z 2613/2712 04004KT P6SM BKN028
     FM270000 04005KT P6SM BKN015
     FM270600 34007KT P6SM BKN015=



000
FTUS41 KILN 261300 AAA
TAFCVG
TAF AMD
KCVG 261305Z 2613/2718 01004KT P6SM OVC025
     FM261600 02006KT P6SM BKN025
     FM270000 04005KT P6SM BKN015
     FM270600 34007KT P6SM BKN015
     FM271200 31010KT P6SM BKN015=



000
FTUS41 KILN 261200 AAA
TAFILN
TAF AMD
KILN 261239Z 2613/2712 03007KT P6SM BKN015
     FM261700 03007KT P6SM BKN025
     FM270300 04004KT P6SM BKN015=



000
FTUS41 KILN 261100
TAFCVG
TAF
KCVG 261130Z 2612/2718 VRB05KT P6SM SCT012 SCT120
      TEMPO 2612/2615 BKN012
     FM270000 04005KT P6SM BKN015
     FM270600 34007KT P6SM BKN015
     FM271200 31010KT P6SM BKN015=



000
FTUS41 KILN 261100
TAFDAY
TAF
KDAY 261130Z 2612/2712 04005KT P6SM OVC015
      TEMPO 2612/2614 OVC009
     FM270600 34006KT P6SM OVC015=



000
FTUS41 KILN 261100
TAFLCK
TAF
KLCK 261130Z 2612/2712 34007KT P6SM BKN025
     FM261500 04003KT P6SM SCT025 SCT120
     FM270000 34004KT P6SM BKN015=



000
FTUS41 KILN 261100
TAFILN
TAF
KILN 261130Z 2612/2712 03007KT P6SM SCT120
      TEMPO 2613/2615 BKN025
     FM270300 04004KT P6SM BKN015=



000
FTUS41 KILN 261100
TAFLUK
TAF
KLUK 261130Z 2612/2712 04004KT P6SM SCT012 SCT120
      TEMPO 2612/2615 BKN012
     FM270000 04005KT P6SM BKN015
     FM270600 34007KT P6SM BKN015=



000
FTUS41 KILN 261100
TAFCMH
TAF
KCMH 261130Z 2612/2712 35004KT P6SM BKN025
     FM261500 04003KT P6SM SCT025 SCT120
     FM270000 34004KT P6SM BKN015=



000
FTUS41 KILN 260900 AAA
TAFCVG
TAF AMD
KCVG 260903Z 2609/2712 VRB05KT P6SM SCT012 SCT200
      TEMPO 2611/2613 BKN012
     FM261300 03004KT P6SM BKN012
     FM261800 VRB03KT P6SM SCT025 BKN200
     FM270000 04005KT P6SM BKN150
     FM270600 34007KT P6SM BKN100=



000
FTUS41 KILN 260700 AAA
TAFDAY
TAF AMD
KDAY 260711Z 2607/2706 01005KT P6SM OVC015
     FM261100 VRB03KT P6SM OVC015=



000
FTUS41 KILN 260500
TAFLUK
TAF
KLUK 260538Z 2606/2706 03004KT P6SM OVC150
     FM261300 03004KT P6SM BKN020
     FM261800 VRB03KT P6SM SCT025 BKN200
     FM270000 04005KT P6SM BKN150=



000
FTUS41 KILN 260500
TAFDAY
TAF
KDAY 260538Z 2606/2706 04005KT P6SM OVC150
      TEMPO 2606/2608 SCT150
     FM261100 VRB03KT P6SM OVC015=



000
FTUS41 KILN 260500
TAFILN
TAF
KILN 260538Z 2606/2706 05007KT P6SM OVC150
     FM261400 VRB03KT P6SM BKN025
     FM261800 VRB03KT P6SM SCT025 BKN050
     FM270000 04005KT P6SM BKN150=



000
FTUS41 KILN 260500
TAFCMH
TAF
KCMH 260538Z 2606/2706 36005KT P6SM FEW200
     FM260900 04004KT P6SM BKN200
     FM261400 04003KT P6SM BKN040
     FM270000 VRB03KT P6SM BKN200=



000
FTUS41 KILN 260500
TAFLCK
TAF
KLCK 260538Z 2606/2706 02004KT P6SM FEW200
     FM260900 04004KT P6SM BKN200
     FM261400 04003KT P6SM BKN040
     FM270000 VRB03KT P6SM BKN200=



000
FTUS41 KILN 260500
TAFCVG
TAF
KCVG 260538Z 2606/2712 36005KT P6SM OVC150
     FM261300 03004KT P6SM BKN020
     FM261800 VRB03KT P6SM SCT025 BKN200
     FM270000 04005KT P6SM BKN150
     FM270600 34007KT P6SM BKN100=



000
FTUS41 KILN 260200 AAA
TAFDAY
TAF AMD
KDAY 260210Z 2602/2624 02005KT P6SM SCT025 BKN200
     FM260600 04004KT P6SM BKN015 OVC022
     FM261600 VRB03KT P6SM OVC022=



000
FTUS41 KILN 252300
TAFILN
TAF
KILN 252333Z 2600/2624 35005KT P6SM BKN200
     FM260900 03004KT P6SM BKN020
     FM261800 VRB03KT P6SM BKN025=



000
FTUS41 KILN 252300
TAFLUK
TAF
KLUK 252333Z 2600/2624 34004KT P6SM BKN200
     FM260900 00000KT P6SM BKN025
     FM261800 00000KT P6SM BKN028=



000
FTUS41 KILN 252300
TAFLCK
TAF
KLCK 252333Z 2600/2624 32006KT P6SM BKN200
     FM260300 35005KT P6SM BKN200
     FM260600 04004KT P6SM BKN200
     FM261200 04004KT P6SM BKN025
     FM261800 VRB03KT P6SM BKN025=



000
FTUS41 KILN 252300
TAFDAY
TAF
KDAY 252333Z 2600/2624 34005KT P6SM OVC022
     FM260600 04004KT P6SM OVC016
     FM261600 VRB03KT P6SM OVC022=



000
FTUS41 KILN 252300
TAFCMH
TAF
KCMH 252333Z 2600/2624 32006KT P6SM BKN035
     FM260300 35005KT P6SM BKN200
     FM260600 04004KT P6SM BKN200
     FM261200 04004KT P6SM BKN025
     FM261800 VRB03KT P6SM BKN025=



000
FTUS41 KILN 252300
TAFCVG
TAF
KCVG 252333Z 2600/2706 34004KT P6SM BKN200
     FM260900 03004KT P6SM BKN022
     FM261800 VRB03KT P6SM BKN025=



000
FTUS41 KILN 252100 AAA
TAFILN
TAF AMD
KILN 252121Z 2521/2618 30008KT P6SM SCT035 BKN200
     FM252300 33004KT P6SM SCT025 BKN200
     FM261400 04004KT P6SM SCT035=



000
FTUS41 KILN 252100 AAA
TAFCMH
TAF AMD
KCMH 252121Z 2521/2618 27008KT P6SM BKN035
     FM260000 VRB03KT P6SM BKN025=



000
FTUS41 KILN 252100 AAA
TAFLCK
TAF AMD
KLCK 252121Z 2521/2618 27008KT P6SM BKN035
     FM260000 VRB03KT P6SM BKN025=



000
FTUS41 KILN 252100 AAB
TAFDAY
TAF AMD
KDAY 252121Z 2521/2618 30008KT P6SM OVC022
     FM260000 34004KT P6SM OVC015
     FM260600 VRB03KT P6SM BKN025
     FM261400 08005KT P6SM SCT035=



000
FTUS41 KILN 252100 AAB
TAFCVG
TAF AMD
KCVG 252105Z 2521/2624 27005KT P6SM BKN035
     FM252300 VRB03KT P6SM SCT035
     FM261500 12005KT P6SM SCT035=



000
FTUS41 KILN 252100 AAB
TAFLUK
TAF AMD
KLUK 252105Z 2521/2618 27005KT P6SM BKN040
     FM252300 VRB03KT P6SM SCT040=



000
FTUS41 KILN 251900 AAA
TAFILN
TAF AMD
KILN 251946Z 2520/2618 25012G20KT P6SM BKN035
     FM252300 VRB03KT P6SM BKN025
     FM261400 04004KT P6SM SCT035=



000
FTUS41 KILN 251900 AAA
TAFDAY
TAF AMD
KDAY 251943Z 2520/2618 25012G20KT P6SM OVC022
     FM252200 28005KT P6SM OVC015
     FM260600 VRB03KT P6SM BKN025
     FM261400 08005KT P6SM SCT035=



000
FTUS41 KILN 251900 AAA
TAFLUK
TAF AMD
KLUK 251940Z 2520/2618 25010KT P6SM BKN040
     FM252300 VRB03KT P6SM SCT040=



000
FTUS41 KILN 251900 AAA
TAFCVG
TAF AMD
KCVG 251938Z 2520/2624 27010KT P6SM BKN035
     FM252300 VRB03KT P6SM SCT035
     FM261500 12005KT P6SM SCT035=



000
FTUS41 KILN 251700
TAFLUK
TAF
KLUK 251725Z 2518/2618 25010KT P6SM SCT035
     FM252200 VRB03KT P6SM BKN028
     FM260700 00000KT P6SM SCT028=



000
FTUS41 KILN 251700
TAFLCK
TAF
KLCK 251725Z 2518/2618 25012G20KT P6SM OVC028
     FM252300 VRB03KT P6SM OVC025=



000
FTUS41 KILN 251700
TAFDAY
TAF
KDAY 251725Z 2518/2618 24012G20KT P6SM OVC022
     FM252200 28005KT P6SM OVC015
     FM260600 VRB03KT P6SM BKN025=



000
FTUS41 KILN 251700
TAFILN
TAF
KILN 251725Z 2518/2618 25012G20KT P6SM BKN035
     FM252300 VRB03KT P6SM BKN025=



000
FTUS41 KILN 251700
TAFCMH
TAF
KCMH 251725Z 2518/2618 25012G20KT P6SM OVC028
     FM252300 VRB03KT P6SM OVC025=



000
FTUS41 KILN 251700
TAFCVG
TAF
KCVG 251725Z 2518/2624 25012KT P6SM SCT035
     FM252200 VRB03KT P6SM BKN025
     FM260600 VRB03KT P6SM SCT025
     FM261500 12005KT P6SM SCT035=



000
FTUS41 KILN 251400 AAB
TAFCVG
TAF AMD
KCVG 251456Z 2515/2618 25010KT P6SM SCT035
     FM252300 VRB03KT P6SM SCT035
     FM260600 VRB03KT P6SM BKN030=



000
FTUS41 KILN 251400 AAB
TAFLUK
TAF AMD
KLUK 251456Z 2515/2612 25010KT P6SM SCT035
     FM260000 VRB03KT P6SM SCT035
     FM260700 VRB03KT P6SM BKN030=



000
FTUS41 KILN 251300 AAA
TAFCVG
TAF AMD
KCVG 251321Z 2513/2618 23008KT P6SM SCT050
     FM251500 26010KT P6SM BKN035
     FM252300 VRB03KT P6SM SCT035
     FM260600 VRB03KT P6SM BKN030=



000
FTUS41 KILN 251300 AAA
TAFLUK
TAF AMD
KLUK 251321Z 2513/2612 24007KT P6SM SCT050
     FM251500 26011KT P6SM BKN035
     FM260000 VRB03KT P6SM SCT035
     FM260700 VRB03KT P6SM BKN030=



000
FTUS41 KILN 251100 CCA
TAFCVG
TAF COR
KCVG 251132Z 2512/2618 23008KT P6SM SCT030 SCT070
      TEMPO 2513/2514 BKN030
     FM251400 25010KT P6SM BKN030
     FM251500 26010KT P6SM BKN035
     FM252300 VRB03KT P6SM SCT035
     FM260600 VRB03KT P6SM BKN030=



000
FTUS41 KILN 251100
TAFILN
TAF
KILN 251130Z 2512/2612 23011KT P6SM SCT030
     FM251400 25012G20KT P6SM BKN035
     FM252100 27010KT P6SM BKN035
     FM252300 VRB03KT P6SM BKN035=



000
FTUS41 KILN 251100
TAFLCK
TAF
KLCK 251130Z 2512/2612 21006KT P6SM FEW030
     FM251400 25012G20KT P6SM BKN030
     FM252100 27010KT P6SM BKN030
     FM260000 VRB03KT P6SM SCT030
     FM260800 VRB03KT P6SM BKN030=



000
FTUS41 KILN 251100
TAFCMH
TAF
KCMH 251130Z 2512/2612 23005KT P6SM FEW030
     FM251400 25012G20KT P6SM BKN030
     FM252100 27010KT P6SM BKN030
     FM260000 VRB03KT P6SM SCT030
     FM260800 VRB03KT P6SM BKN030=



000
FTUS41 KILN 251100
TAFLUK
TAF
KLUK 251130Z 2512/2612 22007KT P6SM SCT050
      TEMPO 2513/2514 BKN030
     FM251400 24010KT P6SM BKN030
     FM251500 26011KT P6SM BKN035
     FM260000 VRB03KT P6SM SCT035
     FM260700 VRB03KT P6SM BKN030=



000
FTUS41 KILN 251100
TAFCVG
TAF
KCVG 251130Z 2512/2618 23008KT P6SM SCT030 SCT070
      TEMPO 2512/2513 BKN030
     FM251300 25010KT P6SM BKN030
     FM251500 26010KT P6SM BKN035
     FM252300 VRB03KT P6SM SCT035
     FM260600 VRB03KT P6SM BKN030=



000
FTUS41 KILN 251100
TAFDAY
TAF
KDAY 251130Z 2512/2612 22012KT P6SM OVC025
     FM251400 24012G20KT P6SM OVC025
     FM252100 27010KT P6SM OVC030
     FM252300 VRB03KT P6SM BKN030=



000
FTUS41 KILN 250900 AAA
TAFCMH
TAF AMD
KCMH 250913Z 2509/2606 23011G19KT P6SM FEW035
     FM251500 25012G20KT P6SM BKN030
     FM252100 27010KT P6SM BKN030
     FM252300 VRB03KT P6SM BKN030=



000
FTUS41 KILN 250900 AAA
TAFCVG
TAF AMD
KCVG 250912Z 2509/2612 22006KT P6SM SKC
     FM251500 26010KT P6SM SCT035
     FM251800 26009KT P6SM BKN035
     FM252300 VRB03KT P6SM BKN035=



000
FTUS41 KILN 250500 RRA
TAFLCK
TAF
KLCK 250542Z 2506/2606 22007KT P6SM SKC
     FM251500 25012G20KT P6SM BKN030
     FM252100 27010KT P6SM BKN030
     FM252300 VRB03KT P6SM BKN030=



000
FTUS41 KILN 250500 RRA
TAFLUK
TAF
KLUK 250542Z 2506/2606 21005KT P6SM SCT060
      TEMPO 2506/2507 OVC060
     FM251500 25010KT P6SM SCT035
     FM251800 26009KT P6SM BKN035
     FM252300 VRB03KT P6SM BKN035=



000
FTUS41 KILN 250500 RRA
TAFDAY
TAF
KDAY 250542Z 2506/2606 24013KT P6SM SCT030
      TEMPO 2506/2508 BKN030
     FM250800 24012KT P6SM BKN030
     FM251200 25012G20KT P6SM OVC030
     FM252100 27010KT P6SM OVC030
     FM252300 VRB03KT P6SM BKN030=



000
FTUS41 KILN 250500 RRA
TAFCMH
TAF
KCMH 250542Z 2506/2606 22007KT P6SM SKC
     FM251500 25012G20KT P6SM BKN030
     FM252100 27010KT P6SM BKN030
     FM252300 VRB03KT P6SM BKN030=



000
FTUS41 KILN 250500 RRA
TAFCVG
TAF
KCVG 250542Z 2506/2612 25006KT P6SM SCT060
     FM251500 26010KT P6SM SCT035
     FM251800 26009KT P6SM BKN035
     FM252300 VRB03KT P6SM BKN035=



000
FTUS41 KILN 250500 RRA
TAFILN
TAF
KILN 250542Z 2506/2606 24013KT P6SM FEW060
     FM251400 25012G20KT P6SM BKN035
     FM252100 27010KT P6SM BKN035
     FM252300 VRB03KT P6SM BKN035=



    US Dept of Commerce
    National Oceanic and Atmospheric Administration
    National Weather Service
    1325 East West Highway
    Silver Spring, MD 20910
    Page Author: NWS Internet Services Team
Disclaimer
Information Quality
Credits
Glossary
Privacy Policy
Freedom of Information Act (FOIA)
About Us
Career Opportunities